createdAt,value
2022-10-31T00:01:33.374Z,51307.06
2022-10-31T00:04:00.798Z,51307.06
2022-10-31T00:06:28.761Z,51317.00
2022-10-31T00:09:00.871Z,51285.19
2022-10-31T00:11:28.878Z,51287.19
2022-10-31T00:13:56.187Z,51295.16
2022-10-31T00:16:26.815Z,51277.25
2022-10-31T00:18:58.682Z,51340.88
2022-10-31T00:21:27.026Z,51303.09
2022-10-31T00:23:54.315Z,51287.19
2022-10-31T00:26:21.995Z,51285.19
2022-10-31T00:28:49.545Z,51313.03
2022-10-31T00:31:16.701Z,51336.91
2022-10-31T00:33:44.905Z,51322.97
2022-10-31T00:36:19.168Z,51289.19
2022-10-31T00:38:47.315Z,51289.19
2022-10-31T00:41:17.235Z,51307.06
2022-10-31T00:43:45.010Z,51291.16
2022-10-31T00:46:13.994Z,51321.00
2022-10-31T00:48:43.290Z,51301.09
2022-10-31T00:51:11.469Z,51289.19
2022-10-31T00:53:40.070Z,51275.25
2022-10-31T00:56:08.337Z,51301.09
2022-10-31T00:58:35.556Z,51317.00
2022-10-31T01:01:02.803Z,51291.16
2022-10-31T01:03:33.771Z,51321.00
2022-10-31T01:06:05.839Z,51301.09
2022-10-31T01:08:37.298Z,51275.25
2022-10-31T01:11:14.792Z,51299.13
2022-10-31T01:13:42.456Z,51291.16
2022-10-31T01:16:14.573Z,51293.16
2022-10-31T01:18:42.026Z,51311.06
2022-10-31T01:21:15.985Z,51285.19
2022-10-31T01:23:43.202Z,51291.16
2022-10-31T01:26:17.268Z,51291.16
2022-10-31T01:28:55.718Z,51303.09
2022-10-31T01:31:27.568Z,51299.13
2022-10-31T01:33:55.660Z,51275.25
2022-10-31T01:36:30.081Z,51291.16
2022-10-31T01:39:01.361Z,51291.16
2022-10-31T01:41:31.952Z,51287.19
2022-10-31T01:44:23.127Z,51301.09
2022-10-31T01:46:58.253Z,51289.19
2022-10-31T01:49:37.073Z,51303.09
2022-10-31T01:52:25.826Z,51326.94
2022-10-31T01:55:33.741Z,51311.06
2022-10-31T01:58:16.013Z,51277.25
2022-10-31T02:00:50.595Z,51283.22
2022-10-31T02:03:19.961Z,51326.94
2022-10-31T02:05:47.626Z,51305.09
2022-10-31T02:08:30.913Z,51313.03
2022-10-31T02:10:59.860Z,51303.09
2022-10-31T02:13:28.863Z,51305.09
2022-10-31T02:15:59.574Z,51322.97
2022-10-31T02:18:30.662Z,51321.00
2022-10-31T02:21:13.112Z,51307.06
2022-10-31T02:24:16.403Z,51315.03
2022-10-31T02:27:44.273Z,51281.22
2022-10-31T02:30:21.684Z,51285.19
2022-10-31T02:33:00.554Z,51295.16
2022-10-31T02:35:55.594Z,51287.19
2022-10-31T02:38:32.393Z,51317.00
2022-10-31T02:41:04.428Z,51277.25
2022-10-31T02:43:45.106Z,51291.16
2022-10-31T02:46:29.606Z,51293.16
2022-10-31T02:49:02.313Z,51293.16
2022-10-31T02:51:29.916Z,51281.22
2022-10-31T02:53:56.929Z,51317.00
2022-10-31T02:56:24.047Z,51303.09
2022-10-31T02:59:01.611Z,51289.19
2022-10-31T03:01:35.328Z,51279.25
2022-10-31T03:04:42.498Z,51289.19
2022-10-31T03:07:29.355Z,51285.19
2022-10-31T03:10:10.005Z,51285.19
2022-10-31T03:13:21.351Z,51281.22
2022-10-31T03:16:07.376Z,51305.09
2022-10-31T03:18:41.101Z,51299.13
2022-10-31T03:21:21.621Z,51291.16
2022-10-31T03:23:50.913Z,51293.16
2022-10-31T03:26:22.377Z,51301.09
2022-10-31T03:29:04.479Z,51289.19
2022-10-31T03:31:44.375Z,51317.00
2022-10-31T03:34:14.595Z,51285.19
2022-10-31T03:36:43.692Z,51295.16
2022-10-31T03:39:15.403Z,51291.16
2022-10-31T03:41:50.900Z,51299.13
2022-10-31T03:44:20.796Z,51321.00
2022-10-31T03:46:56.256Z,51281.22
2022-10-31T03:49:23.772Z,51315.03
2022-10-31T03:52:28.726Z,51265.31
2022-10-31T03:55:19.861Z,51299.13
2022-10-31T03:58:06.723Z,51301.09
2022-10-31T04:00:35.074Z,51303.09
2022-10-31T04:03:16.688Z,51273.28
2022-10-31T04:05:50.417Z,51285.19
2022-10-31T04:08:21.677Z,51275.25
2022-10-31T04:10:51.164Z,51299.13
2022-10-31T04:13:30.403Z,51289.19
2022-10-31T04:16:06.394Z,51287.19
2022-10-31T04:18:34.130Z,51309.06
2022-10-31T04:21:08.075Z,51295.16
2022-10-31T04:23:37.255Z,51311.06
2022-10-31T04:26:25.630Z,51295.16
2022-10-31T04:28:52.802Z,51269.31
2022-10-31T04:31:20.309Z,51299.13
2022-10-31T04:33:49.539Z,51281.22
2022-10-31T04:36:16.810Z,51283.22
2022-10-31T04:38:43.889Z,51297.13
2022-10-31T04:41:24.204Z,51289.19
2022-10-31T04:43:59.204Z,51291.16
2022-10-31T04:46:28.095Z,51313.03
2022-10-31T04:48:57.484Z,51324.97
2022-10-31T04:51:25.015Z,51289.19
2022-10-31T04:53:52.622Z,51261.34
2022-10-31T04:56:28.415Z,51283.22
2022-10-31T04:59:06.078Z,51307.06
2022-10-31T05:01:46.737Z,51297.13
2022-10-31T05:04:14.006Z,51273.28
2022-10-31T05:06:42.085Z,51301.09
2022-10-31T05:09:09.442Z,51275.25
2022-10-31T05:11:36.481Z,51299.13
2022-10-31T05:14:19.178Z,51287.19
2022-10-31T05:17:04.793Z,51311.06
2022-10-31T05:19:54.622Z,51295.16
2022-10-31T05:23:06.591Z,51299.13
2022-10-31T05:25:33.751Z,51297.13
2022-10-31T05:28:04.549Z,51293.16
2022-10-31T05:30:33.096Z,51301.09
2022-10-31T05:33:01.919Z,51291.16
2022-10-31T05:35:47.759Z,51287.19
2022-10-31T05:38:29.650Z,51285.19
2022-10-31T05:41:02.889Z,51267.31
2022-10-31T05:43:32.320Z,51322.97
2022-10-31T05:46:00.791Z,51297.13
2022-10-31T05:48:47.857Z,51321.00
2022-10-31T05:51:29.770Z,51293.16
2022-10-31T05:53:56.903Z,51311.06
2022-10-31T05:56:24.894Z,51291.16
2022-10-31T05:58:52.154Z,51295.16
2022-10-31T06:01:19.240Z,51293.16
2022-10-31T06:03:47.127Z,51295.16
2022-10-31T06:06:16.684Z,51299.13
2022-10-31T06:08:43.927Z,51299.13
2022-10-31T06:11:15.666Z,51305.09
2022-10-31T06:13:54.563Z,51303.09
2022-10-31T06:16:31.158Z,51305.09
2022-10-31T06:19:04.082Z,51313.03
2022-10-31T06:21:31.789Z,51285.19
2022-10-31T06:23:59.145Z,51275.25
2022-10-31T06:26:55.170Z,51305.09
2022-10-31T06:29:22.612Z,51305.09
2022-10-31T06:32:05.679Z,51313.03
2022-10-31T06:34:38.759Z,51279.25
2022-10-31T06:37:08.486Z,51297.13
2022-10-31T06:39:36.072Z,51287.19
2022-10-31T06:42:03.757Z,51326.94
2022-10-31T06:44:31.915Z,51326.94
2022-10-31T06:47:17.469Z,51287.19
2022-10-31T06:49:56.878Z,51293.16
2022-10-31T06:52:25.789Z,51340.88
2022-10-31T06:54:53.729Z,51313.03
2022-10-31T06:57:22.120Z,51307.06
2022-10-31T06:59:49.892Z,51307.06
2022-10-31T07:02:39.789Z,51324.97
2022-10-31T07:05:07.349Z,51303.09
2022-10-31T07:07:34.380Z,51307.06
2022-10-31T07:10:01.628Z,51311.06
2022-10-31T07:12:43.455Z,51322.97
2022-10-31T07:15:11.885Z,51293.16
2022-10-31T07:17:39.065Z,51317.00
2022-10-31T07:20:09.652Z,51317.00
2022-10-31T07:22:38.606Z,51297.13
2022-10-31T07:25:09.417Z,51334.91
2022-10-31T07:27:42.789Z,51315.03
2022-10-31T07:30:14.093Z,51319.00
2022-10-31T07:32:50.056Z,51321.00
2022-10-31T07:35:27.567Z,51348.81
2022-10-31T07:37:59.311Z,51332.91
2022-10-31T07:40:26.929Z,51319.00
2022-10-31T07:42:54.903Z,51344.84
2022-10-31T07:45:40.729Z,51324.97
2022-10-31T07:48:28.015Z,51319.00
2022-10-31T07:51:13.526Z,51307.06
2022-10-31T07:53:52.874Z,51342.84
2022-10-31T07:56:24.910Z,51338.88
2022-10-31T07:58:52.757Z,51338.88
2022-10-31T08:01:19.813Z,51326.94
2022-10-31T08:04:02.639Z,51352.78
2022-10-31T08:07:01.432Z,51334.91
2022-10-31T08:09:34.634Z,51322.97
2022-10-31T08:12:06.706Z,51340.88
2022-10-31T08:14:35.781Z,51344.84
2022-10-31T08:17:02.875Z,51358.75
2022-10-31T08:19:40.134Z,51348.81
2022-10-31T08:22:10.294Z,51330.94
2022-10-31T08:27:09.469Z,51344.84
2022-10-31T08:29:38.502Z,51346.84
2022-10-31T08:32:05.944Z,51350.81
2022-10-31T08:34:51.775Z,51372.69
2022-10-31T08:37:39.035Z,51362.75
2022-10-31T08:40:07.763Z,51368.69
2022-10-31T08:42:35.982Z,51372.69
2022-10-31T08:45:04.273Z,51358.75
2022-10-31T08:47:33.327Z,51360.75
2022-10-31T08:50:01.110Z,51350.81
2022-10-31T08:52:58.719Z,51366.72
2022-10-31T08:55:16.689Z,51350.81
2022-10-31T08:58:06.935Z,51344.84
2022-10-31T09:00:43.753Z,51368.69
2022-10-31T09:03:21.770Z,51370.69
2022-10-31T09:05:49.663Z,51386.59
2022-10-31T09:08:17.578Z,51374.66
2022-10-31T09:10:47.413Z,51376.66
2022-10-31T09:13:21.268Z,51366.72
2022-10-31T09:16:07.380Z,51358.75
2022-10-31T09:18:35.747Z,51404.50
2022-10-31T09:21:03.081Z,51376.66
2022-10-31T09:23:33.097Z,51408.47
2022-10-31T09:26:02.789Z,51404.50
2022-10-31T09:28:42.770Z,51372.69
2022-10-31T09:31:13.010Z,51392.56
2022-10-31T09:34:09.338Z,51390.56
2022-10-31T09:36:40.074Z,51378.66
2022-10-31T09:39:21.138Z,51386.59
2022-10-31T09:42:03.020Z,51396.53
2022-10-31T09:45:26.576Z,51418.41
2022-10-31T09:48:24.496Z,51388.59
2022-10-31T09:51:24.582Z,51384.59
2022-10-31T09:54:33.755Z,51410.44
2022-10-31T09:57:01.880Z,51408.47
2022-10-31T09:59:37.179Z,51394.53
2022-10-31T10:02:31.835Z,51406.47
2022-10-31T10:05:04.995Z,51400.50
2022-10-31T10:08:13.541Z,51454.19
2022-10-31T10:11:32.569Z,51418.41
2022-10-31T10:14:23.233Z,51432.31
2022-10-31T10:16:59.046Z,51424.38
2022-10-31T10:20:03.137Z,51432.31
2022-10-31T10:22:39.042Z,51412.44
2022-10-31T10:25:12.081Z,51414.44
2022-10-31T10:28:39.266Z,51410.44
2022-10-31T10:31:14.638Z,51444.25
2022-10-31T10:34:00.753Z,51430.34
2022-10-31T10:37:04.563Z,51424.38
2022-10-31T10:39:39.884Z,51432.31
2022-10-31T10:42:34.906Z,51426.34
2022-10-31T10:45:37.045Z,51418.41
2022-10-31T10:48:17.044Z,51456.19
2022-10-31T10:50:52.551Z,51442.25
2022-10-31T10:54:39.255Z,51464.13
2022-10-31T10:57:37.541Z,51480.03
2022-10-31T11:00:31.322Z,51515.81
2022-10-31T11:02:58.730Z,51603.31
2022-10-31T11:05:41.802Z,51660.97
2022-10-31T11:08:09.318Z,51704.69
2022-10-31T11:10:36.986Z,51756.41
2022-10-31T11:13:22.989Z,51849.84
2022-10-31T11:16:05.741Z,51901.56
2022-10-31T11:18:43.257Z,51925.41
2022-10-31T11:21:25.657Z,51977.09
2022-10-31T11:24:24.317Z,52092.44
2022-10-31T11:26:52.544Z,52179.94
2022-10-31T11:29:26.053Z,52253.50
2022-10-31T11:31:57.003Z,52277.38
2022-10-31T11:34:51.360Z,52416.59
2022-10-31T11:37:36.200Z,52462.31
2022-10-31T11:40:07.434Z,52571.69
2022-10-31T11:42:42.567Z,52533.91
2022-10-31T11:45:37.727Z,52514.03
2022-10-31T11:48:21.936Z,52585.63
2022-10-31T11:50:53.884Z,52631.38
2022-10-31T11:53:30.205Z,52722.84
2022-10-31T11:56:17.672Z,52732.81
2022-10-31T11:58:44.888Z,52734.78
2022-10-31T12:01:28.745Z,52734.78
2022-10-31T12:04:08.067Z,52689.03
2022-10-31T12:06:44.290Z,52724.84
2022-10-31T12:09:27.131Z,52722.84
2022-10-31T12:12:12.734Z,52798.44
2022-10-31T12:15:07.187Z,52840.19
2022-10-31T12:18:04.750Z,52774.56
2022-10-31T12:20:52.703Z,52742.75
2022-10-31T12:24:01.485Z,52909.81
2022-10-31T12:26:37.649Z,52911.81
2022-10-31T12:29:34.884Z,52989.38
2022-10-31T12:32:30.305Z,52991.38
2022-10-31T12:35:24.249Z,52987.38
2022-10-31T12:38:09.451Z,53062.97
2022-10-31T12:41:01.817Z,53100.75
2022-10-31T12:43:44.752Z,53039.09
2022-10-31T12:47:04.464Z,53015.22
2022-10-31T12:49:55.229Z,53102.75
2022-10-31T12:53:00.281Z,53158.44
2022-10-31T12:55:39.672Z,53214.16
2022-10-31T12:58:38.181Z,53118.66
2022-10-31T13:01:13.646Z,52967.50
2022-10-31T13:04:17.170Z,52919.75
2022-10-31T13:06:54.010Z,53015.22
2022-10-31T13:09:31.836Z,52907.81
2022-10-31T13:12:08.412Z,53013.25
2022-10-31T13:14:44.371Z,52939.66
2022-10-31T13:17:27.443Z,53043.06
2022-10-31T13:20:05.191Z,53164.41
2022-10-31T13:22:36.757Z,53057.00
2022-10-31T13:25:09.868Z,53078.88
2022-10-31T13:28:01.841Z,53076.91
2022-10-31T13:30:33.797Z,52999.31
2022-10-31T13:33:35.370Z,52953.56
2022-10-31T13:36:18.171Z,53068.94
2022-10-31T13:39:11.583Z,53011.25
2022-10-31T13:42:25.100Z,53013.25
2022-10-31T13:44:52.160Z,53053.03
2022-10-31T13:47:28.341Z,53045.06
2022-10-31T13:50:20.916Z,52999.31
2022-10-31T13:52:48.456Z,52979.44
2022-10-31T13:55:45.097Z,52776.56
2022-10-31T13:58:38.692Z,52744.72
2022-10-31T14:01:17.020Z,52746.72
2022-10-31T14:04:12.410Z,52836.22
2022-10-31T14:06:39.600Z,52822.31
2022-10-31T14:09:07.384Z,52856.13
2022-10-31T14:11:37.152Z,52852.13
2022-10-31T14:14:12.372Z,52788.50
2022-10-31T14:16:44.261Z,52689.03
2022-10-31T14:19:22.139Z,52547.84
2022-10-31T14:21:51.208Z,52553.81
2022-10-31T14:24:24.393Z,52358.91
2022-10-31T14:27:16.148Z,52259.47
2022-10-31T14:29:46.617Z,52078.53
2022-10-31T14:32:27.670Z,52004.94
2022-10-31T14:34:58.440Z,51883.66
2022-10-31T14:38:08.597Z,51792.19
2022-10-31T14:41:25.318Z,51734.53
2022-10-31T14:44:40.135Z,51702.72
2022-10-31T14:47:16.113Z,51662.94
2022-10-31T14:50:26.997Z,51660.97
2022-10-31T14:52:58.784Z,51619.22
2022-10-31T14:55:27.395Z,51607.28
2022-10-31T14:58:04.115Z,51589.38
2022-10-31T15:00:34.166Z,51601.31
2022-10-31T15:03:26.238Z,51561.56
2022-10-31T15:05:57.840Z,51551.63
2022-10-31T15:08:44.994Z,51571.50
2022-10-31T15:11:20.078Z,51539.69
2022-10-31T15:13:58.258Z,51531.72
2022-10-31T15:16:36.935Z,51515.81
2022-10-31T15:19:11.839Z,51503.91
2022-10-31T15:21:48.318Z,51531.72
2022-10-31T15:24:19.669Z,51519.81
2022-10-31T15:26:52.878Z,51482.03
2022-10-31T15:29:23.734Z,51501.91
2022-10-31T15:31:55.811Z,51523.78
2022-10-31T15:34:43.086Z,51486.00
2022-10-31T15:37:20.638Z,51470.09
2022-10-31T15:39:49.730Z,51460.16
2022-10-31T15:42:31.253Z,51478.03
2022-10-31T15:45:24.933Z,51472.09
2022-10-31T15:48:05.277Z,51464.13
2022-10-31T15:50:38.766Z,51442.25
2022-10-31T15:53:12.526Z,51436.28
2022-10-31T15:56:06.056Z,51462.16
2022-10-31T15:58:42.759Z,51440.28
2022-10-31T16:01:25.406Z,51432.31
2022-10-31T16:04:04.584Z,51404.50
2022-10-31T16:06:34.421Z,51436.28
2022-10-31T16:09:01.714Z,51406.47
2022-10-31T16:11:40.304Z,51422.38
2022-10-31T16:14:11.655Z,51416.41
2022-10-31T16:16:47.416Z,51398.53
2022-10-31T16:19:25.061Z,51374.66
2022-10-31T16:21:57.360Z,51394.53
2022-10-31T16:24:30.254Z,51386.59
2022-10-31T16:27:24.435Z,51392.56
2022-10-31T16:29:51.638Z,51392.56
2022-10-31T16:32:38.562Z,51410.44
2022-10-31T16:35:26.921Z,51388.59
2022-10-31T16:37:54.752Z,51362.75
2022-10-31T16:40:21.820Z,51398.53
2022-10-31T16:42:50.500Z,51410.44
2022-10-31T16:45:27.213Z,51396.53
2022-10-31T16:47:54.652Z,51366.72
2022-10-31T16:50:24.147Z,51398.53
2022-10-31T16:53:12.928Z,51352.78
2022-10-31T16:55:58.214Z,51352.78
2022-10-31T16:58:36.770Z,51360.75
2022-10-31T17:01:07.065Z,51338.88
2022-10-31T17:03:34.514Z,51396.53
2022-10-31T17:06:03.044Z,51370.69
2022-10-31T17:08:31.017Z,51378.66
2022-10-31T17:10:59.517Z,51342.84
2022-10-31T17:13:31.321Z,51362.75
2022-10-31T17:16:01.841Z,51356.78
2022-10-31T17:18:30.943Z,51352.78
2022-10-31T17:21:00.785Z,51364.72
2022-10-31T17:23:28.857Z,51348.81
2022-10-31T17:25:58.647Z,51378.66
2022-10-31T17:28:31.802Z,51356.78
2022-10-31T17:30:59.493Z,51382.63
2022-10-31T17:33:27.147Z,51346.84
2022-10-31T17:35:54.543Z,51362.75
2022-10-31T17:38:21.885Z,51364.72
2022-10-31T17:43:21.030Z,51358.75
2022-10-31T17:45:48.035Z,51348.81
2022-10-31T17:48:15.065Z,51350.81
2022-10-31T17:50:44.989Z,51342.84
2022-10-31T17:53:12.009Z,51348.81
2022-10-31T17:55:39.047Z,51340.88
2022-10-31T17:58:06.145Z,51354.78
2022-10-31T18:00:34.188Z,51364.72
2022-10-31T18:03:04.884Z,51362.75
2022-10-31T18:05:32.396Z,51362.75
2022-10-31T18:08:03.732Z,51390.56
2022-10-31T18:10:34.528Z,51356.78
2022-10-31T18:13:01.822Z,51394.53
2022-10-31T18:15:33.804Z,51356.78
2022-10-31T18:18:01.064Z,51340.88
2022-10-31T18:20:30.889Z,51358.75
2022-10-31T18:22:57.931Z,51384.59
2022-10-31T18:25:25.041Z,51346.84
2022-10-31T18:27:52.046Z,51364.72
2022-10-31T18:30:19.053Z,51350.81
2022-10-31T18:32:49.568Z,51362.75
2022-10-31T18:35:16.648Z,51348.81
2022-10-31T18:37:43.979Z,51352.78
2022-10-31T18:40:13.520Z,51321.00
2022-10-31T18:42:40.626Z,51336.91
2022-10-31T18:45:11.993Z,51364.72
2022-10-31T18:47:55.302Z,51328.94
2022-10-31T18:50:22.369Z,51356.78
2022-10-31T18:52:49.390Z,51360.75
2022-10-31T18:55:16.677Z,51356.78
2022-10-31T18:57:43.734Z,51326.94
2022-10-31T19:00:11.419Z,51336.91
2022-10-31T19:02:39.468Z,51344.84
2022-10-31T19:05:06.895Z,51324.97
2022-10-31T19:07:33.978Z,51344.84
2022-10-31T19:10:01.067Z,51342.84
2022-10-31T19:12:28.045Z,51313.03
2022-10-31T19:14:55.367Z,51358.75
2022-10-31T19:17:25.494Z,51330.94
2022-10-31T19:19:52.599Z,51336.91
2022-10-31T19:22:19.725Z,51319.00
2022-10-31T19:24:46.881Z,51350.81
2022-10-31T19:27:13.905Z,51356.78
2022-10-31T19:29:42.301Z,51352.78
2022-10-31T19:32:09.709Z,51332.91
2022-10-31T19:34:36.863Z,51315.03
2022-10-31T19:37:03.984Z,51315.03
2022-10-31T19:39:31.078Z,51330.94
2022-10-31T19:41:58.175Z,51328.94
2022-10-31T19:44:25.466Z,51336.91
2022-10-31T19:46:53.789Z,51340.88
2022-10-31T19:49:21.600Z,51328.94
2022-10-31T19:51:48.676Z,51336.91
2022-10-31T19:54:15.830Z,51350.81
2022-10-31T19:56:43.023Z,51326.94
2022-10-31T19:59:10.206Z,51322.97
2022-10-31T20:01:37.500Z,51332.91
2022-10-31T20:04:04.802Z,51328.94
2022-10-31T20:06:37.293Z,51376.66
2022-10-31T20:09:08.596Z,51332.91
2022-10-31T20:11:38.174Z,51352.78
2022-10-31T20:14:06.585Z,51346.84
2022-10-31T20:16:33.759Z,51342.84
2022-10-31T20:19:01.120Z,51330.94
2022-10-31T20:21:31.943Z,51332.91
2022-10-31T20:24:02.596Z,51350.81
2022-10-31T20:26:31.933Z,51338.88
2022-10-31T20:29:00.698Z,51305.09
2022-10-31T20:31:33.944Z,51319.00
2022-10-31T20:34:01.305Z,51324.97
2022-10-31T20:36:31.597Z,51332.91
2022-10-31T20:39:00.264Z,51328.94
2022-10-31T20:41:29.840Z,51334.91
2022-10-31T20:43:58.310Z,51338.88
2022-10-31T20:46:27.361Z,51324.97
2022-10-31T20:48:57.299Z,51336.91
2022-10-31T20:51:28.324Z,51330.94
2022-10-31T20:53:57.737Z,51332.91
2022-10-31T20:56:27.449Z,51356.78
2022-10-31T20:58:56.254Z,51328.94
2022-10-31T21:01:30.067Z,51330.94
2022-10-31T21:03:58.965Z,51321.00
2022-10-31T21:06:26.848Z,51324.97
2022-10-31T21:08:54.150Z,51328.94
2022-10-31T21:11:24.274Z,51350.81
2022-10-31T21:13:52.122Z,51332.91
2022-10-31T21:16:23.602Z,51289.19
2022-10-31T21:18:51.968Z,51340.88
2022-10-31T21:21:28.895Z,51348.81
2022-10-31T21:24:13.447Z,51324.97
2022-10-31T21:26:45.147Z,51322.97
2022-10-31T21:29:13.823Z,51332.91
2022-10-31T21:31:42.089Z,51336.91
2022-10-31T21:34:10.014Z,51326.94
2022-10-31T21:36:37.969Z,51321.00
2022-10-31T21:39:07.825Z,51338.88
2022-10-31T21:41:35.221Z,51348.81
2022-10-31T21:44:02.331Z,51321.00
2022-10-31T21:46:32.323Z,51319.00
2022-10-31T21:49:02.159Z,51324.97
2022-10-31T21:51:32.645Z,51326.94
2022-10-31T21:54:18.991Z,51332.91
2022-10-31T21:56:46.341Z,51319.00
2022-10-31T21:59:13.794Z,51315.03
2022-10-31T22:01:41.302Z,51297.13
2022-10-31T22:04:08.661Z,51315.03
2022-10-31T22:06:36.562Z,51326.94
2022-10-31T22:09:07.369Z,51326.94
2022-10-31T22:11:35.061Z,51346.84
2022-10-31T22:14:02.876Z,51319.00
2022-10-31T22:16:33.660Z,51321.00
2022-10-31T22:19:05.453Z,51336.91
2022-10-31T22:21:46.536Z,51350.81
2022-10-31T22:24:15.237Z,51321.00
2022-10-31T22:26:42.582Z,51305.09
2022-10-31T22:29:17.428Z,51321.00
2022-10-31T22:31:50.599Z,51334.91
2022-10-31T22:34:20.581Z,51328.94
2022-10-31T22:36:47.844Z,51350.81
2022-10-31T22:39:15.300Z,51326.94
2022-10-31T22:41:42.543Z,51338.88
2022-10-31T22:44:10.031Z,51332.91
2022-10-31T22:46:40.022Z,51340.88
2022-10-31T22:49:14.717Z,51336.91
2022-10-31T22:51:43.286Z,51392.56
2022-10-31T22:54:18.710Z,51326.94
2022-10-31T22:56:46.452Z,51322.97
2022-10-31T22:59:15.702Z,51334.91
2022-10-31T23:01:46.634Z,51338.88
2022-10-31T23:04:16.383Z,51342.84
2022-10-31T23:06:44.434Z,51324.97
2022-10-31T23:09:15.264Z,51334.91
2022-10-31T23:11:43.128Z,51338.88
2022-10-31T23:14:18.595Z,51334.91
2022-10-31T23:16:55.478Z,51326.94
2022-10-31T23:19:40.676Z,51330.94
2022-10-31T23:22:07.822Z,51328.94
2022-10-31T23:24:42.853Z,51330.94
2022-10-31T23:27:17.220Z,51309.06
2022-10-31T23:29:48.541Z,51317.00
2022-10-31T23:32:31.840Z,51324.97
2022-10-31T23:35:06.284Z,51315.03
2022-10-31T23:37:36.516Z,51313.03
2022-10-31T23:40:05.389Z,51326.94
2022-10-31T23:42:32.445Z,51319.00
2022-10-31T23:44:59.495Z,51311.06
2022-10-31T23:47:26.644Z,51321.00
2022-10-31T23:49:53.759Z,51309.06
2022-10-31T23:52:20.961Z,51307.06
2022-10-31T23:54:48.151Z,51324.97
2022-10-31T23:57:16.826Z,51336.91
2022-10-31T23:59:44.230Z,51313.03
